sensor_id;sensor_type;location;lat;lon;timestamp;P1;durP1;ratioP1;P2;durP2;ratioP2
65463;SDS011;52063;45.110;9.870;2023-03-14T02:36:47;6.47;;;4.43;;
65463;SDS011;52063;45.110;9.870;2023-03-14T02:39:18;7.20;;;4.83;;
65463;SDS011;52063;45.110;9.870;2023-03-14T02:42:06;4.93;;;4.28;;
65463;SDS011;52063;45.110;9.870;2023-03-14T02:44:32;5.93;;;4.82;;
65463;SDS011;52063;45.110;9.870;2023-03-14T02:46:58;6.63;;;4.87;;
65463;SDS011;52063;45.110;9.870;2023-03-14T02:49:24;6.55;;;4.88;;
65463;SDS011;52063;45.110;9.870;2023-03-14T02:51:51;5.50;;;4.82;;
65463;SDS011;52063;45.110;9.870;2023-03-14T02:54:16;4.83;;;4.07;;
65463;SDS011;52063;45.110;9.870;2023-03-14T02:56:43;5.22;;;4.45;;
65463;SDS011;52063;45.110;9.870;2023-03-14T02:59:11;6.13;;;4.90;;
65463;SDS011;52063;45.110;9.870;2023-03-14T03:01:43;5.57;;;4.50;;
65463;SDS011;52063;45.110;9.870;2023-03-14T03:04:09;4.88;;;4.13;;
65463;SDS011;52063;45.110;9.870;2023-03-14T03:06:34;5.90;;;4.70;;
65463;SDS011;52063;45.110;9.870;2023-03-14T03:09:00;5.67;;;4.70;;
65463;SDS011;52063;45.110;9.870;2023-03-14T03:11:25;5.90;;;4.57;;
65463;SDS011;52063;45.110;9.870;2023-03-14T03:13:51;5.75;;;5.03;;
65463;SDS011;52063;45.110;9.870;2023-03-14T03:16:17;6.38;;;4.13;;
65463;SDS011;52063;45.110;9.870;2023-03-14T03:18:43;7.07;;;4.30;;
65463;SDS011;52063;45.110;9.870;2023-03-14T03:21:08;6.30;;;4.83;;
65463;SDS011;52063;45.110;9.870;2023-03-14T03:23:34;5.05;;;4.55;;
65463;SDS011;52063;45.110;9.870;2023-03-14T03:26:00;5.47;;;4.17;;
65463;SDS011;52063;45.110;9.870;2023-03-14T03:28:26;4.97;;;4.47;;
65463;SDS011;52063;45.110;9.870;2023-03-14T03:30:52;4.70;;;4.28;;
65463;SDS011;52063;45.110;9.870;2023-03-14T03:33:18;4.83;;;4.10;;
65463;SDS011;52063;45.110;9.870;2023-03-14T03:35:45;5.97;;;4.28;;
65463;SDS011;52063;45.110;9.870;2023-03-14T03:38:12;5.97;;;4.25;;
65463;SDS011;52063;45.110;9.870;2023-03-14T03:40:38;5.60;;;4.70;;
65463;SDS011;52063;45.110;9.870;2023-03-14T03:43:05;5.63;;;4.00;;
65463;SDS011;52063;45.110;9.870;2023-03-14T03:45:35;4.10;;;3.67;;
65463;SDS011;52063;45.110;9.870;2023-03-14T03:48:00;5.93;;;4.22;;
65463;SDS011;52063;45.110;9.870;2023-03-14T03:50:26;4.93;;;4.10;;
65463;SDS011;52063;45.110;9.870;2023-03-14T03:52:51;4.30;;;3.90;;
65463;SDS011;52063;45.110;9.870;2023-03-14T03:55:17;5.55;;;4.40;;
65463;SDS011;52063;45.110;9.870;2023-03-14T03:57:44;4.90;;;4.40;;
65463;SDS011;52063;45.110;9.870;2023-03-14T04:00:10;4.93;;;3.97;;
65463;SDS011;52063;45.110;9.870;2023-03-14T04:02:40;4.90;;;4.38;;
65463;SDS011;52063;45.110;9.870;2023-03-14T04:05:07;4.07;;;3.67;;
65463;SDS011;52063;45.110;9.870;2023-03-14T04:07:34;6.07;;;4.00;;
65463;SDS011;52063;45.110;9.870;2023-03-14T04:09:59;4.90;;;3.87;;
65463;SDS011;52063;45.110;9.870;2023-03-14T04:12:35;4.53;;;3.80;;
65463;SDS011;52063;45.110;9.870;2023-03-14T04:15:06;5.28;;;4.20;;
65463;SDS011;52063;45.110;9.870;2023-03-14T04:17:33;4.75;;;4.20;;
65463;SDS011;52063;45.110;9.870;2023-03-14T04:19:58;5.90;;;4.47;;
65463;SDS011;52063;45.110;9.870;2023-03-14T04:22:32;5.43;;;4.03;;
65463;SDS011;52063;45.110;9.870;2023-03-14T04:24:58;5.63;;;4.20;;
65463;SDS011;52063;45.110;9.870;2023-03-14T04:27:24;4.17;;;3.77;;
65463;SDS011;52063;45.110;9.870;2023-03-14T04:29:50;5.00;;;3.43;;
65463;SDS011;52063;45.110;9.870;2023-03-14T04:32:20;4.70;;;3.85;;
65463;SDS011;52063;45.110;9.870;2023-03-14T04:34:46;4.00;;;3.60;;
65463;SDS011;52063;45.110;9.870;2023-03-14T04:37:12;4.30;;;3.67;;
65463;SDS011;52063;45.110;9.870;2023-03-14T04:39:41;5.03;;;4.07;;
65463;SDS011;52063;45.110;9.870;2023-03-14T04:42:14;4.53;;;4.05;;
65463;SDS011;52063;45.110;9.870;2023-03-14T04:44:40;4.43;;;4.03;;
65463;SDS011;52063;45.110;9.870;2023-03-14T04:47:06;4.47;;;3.67;;
65463;SDS011;52063;45.110;9.870;2023-03-14T04:49:31;6.57;;;4.32;;
65463;SDS011;52063;45.110;9.870;2023-03-14T04:51:58;4.50;;;4.05;;
65463;SDS011;52063;45.110;9.870;2023-03-14T04:54:26;5.13;;;4.13;;
65463;SDS011;52063;45.110;9.870;2023-03-14T04:56:55;4.10;;;3.70;;
65463;SDS011;52063;45.110;9.870;2023-03-14T04:59:21;4.53;;;3.77;;
65463;SDS011;52063;45.110;9.870;2023-03-14T05:01:48;5.60;;;3.65;;
65463;SDS011;52063;45.110;9.870;2023-03-14T05:04:35;4.22;;;3.80;;
65463;SDS011;52063;45.110;9.870;2023-03-14T05:07:16;5.05;;;3.85;;
65463;SDS011;52063;45.110;9.870;2023-03-14T05:09:56;5.47;;;3.65;;
65463;SDS011;52063;45.110;9.870;2023-03-14T05:12:44;5.67;;;3.40;;
65463;SDS011;52063;45.110;9.870;2023-03-14T05:15:29;3.97;;;3.30;;
65463;SDS011;52063;45.110;9.870;2023-03-14T05:18:08;4.38;;;3.67;;
65463;SDS011;52063;45.110;9.870;2023-03-14T05:20:54;4.40;;;3.55;;
65463;SDS011;52063;45.110;9.870;2023-03-14T05:23:26;4.35;;;3.30;;
65463;SDS011;52063;45.110;9.870;2023-03-14T05:26:11;4.20;;;3.80;;
65463;SDS011;52063;45.110;9.870;2023-03-14T05:28:57;4.35;;;3.70;;
65463;SDS011;52063;45.110;9.870;2023-03-14T05:31:57;4.30;;;3.47;;
65463;SDS011;52063;45.110;9.870;2023-03-14T05:34:49;4.55;;;3.47;;
65463;SDS011;52063;45.110;9.870;2023-03-14T05:37:44;5.20;;;3.85;;
65463;SDS011;52063;45.110;9.870;2023-03-14T05:40:32;3.83;;;3.40;;
65463;SDS011;52063;45.110;9.870;2023-03-14T05:43:11;4.18;;;3.42;;
65463;SDS011;52063;45.110;9.870;2023-03-14T05:45:48;3.85;;;3.45;;
65463;SDS011;52063;45.110;9.870;2023-03-14T05:48:36;3.97;;;3.50;;
65463;SDS011;52063;45.110;9.870;2023-03-14T05:51:37;4.05;;;3.42;;
65463;SDS011;52063;45.110;9.870;2023-03-14T05:54:21;4.00;;;3.37;;
65463;SDS011;52063;45.110;9.870;2023-03-14T05:56:46;3.70;;;3.38;;
65463;SDS011;52063;45.110;9.870;2023-03-14T05:59:32;4.60;;;3.70;;
65463;SDS011;52063;45.110;9.870;2023-03-14T06:02:11;6.07;;;3.95;;
65463;SDS011;52063;45.110;9.870;2023-03-14T06:04:47;3.97;;;3.58;;
65463;SDS011;52063;45.110;9.870;2023-03-14T06:07:13;4.53;;;3.27;;
65463;SDS011;52063;45.110;9.870;2023-03-14T06:09:38;3.97;;;3.50;;
65463;SDS011;52063;45.110;9.870;2023-03-14T06:12:05;5.20;;;3.95;;
65463;SDS011;52063;45.110;9.870;2023-03-14T06:14:37;4.63;;;3.90;;
65463;SDS011;52063;45.110;9.870;2023-03-14T06:17:03;4.60;;;3.53;;
65463;SDS011;52063;45.110;9.870;2023-03-14T06:19:35;3.60;;;3.30;;
65463;SDS011;52063;45.110;9.870;2023-03-14T06:22:01;4.18;;;3.13;;
65463;SDS011;52063;45.110;9.870;2023-03-14T06:24:26;3.93;;;3.53;;
65463;SDS011;52063;45.110;9.870;2023-03-14T06:26:52;4.10;;;3.72;;
65463;SDS011;52063;45.110;9.870;2023-03-14T06:29:18;3.55;;;3.25;;
65463;SDS011;52063;45.110;9.870;2023-03-14T06:31:44;5.57;;;3.57;;
65463;SDS011;52063;45.110;9.870;2023-03-14T06:34:13;4.00;;;3.47;;
65463;SDS011;52063;45.110;9.870;2023-03-14T06:36:39;3.80;;;3.30;;
65463;SDS011;52063;45.110;9.870;2023-03-14T06:39:04;4.50;;;3.65;;
65463;SDS011;52063;45.110;9.870;2023-03-14T06:41:33;4.05;;;3.55;;
65463;SDS011;52063;45.110;9.870;2023-03-14T06:43:59;4.23;;;3.43;;
65463;SDS011;52063;45.110;9.870;2023-03-14T06:46:25;3.97;;;3.60;;
65463;SDS011;52063;45.110;9.870;2023-03-14T06:48:52;3.63;;;3.33;;
65463;SDS011;52063;45.110;9.870;2023-03-14T06:51:18;3.83;;;3.42;;
65463;SDS011;52063;45.110;9.870;2023-03-14T06:53:44;4.18;;;3.50;;
65463;SDS011;52063;45.110;9.870;2023-03-14T06:56:13;5.30;;;3.30;;
65463;SDS011;52063;45.110;9.870;2023-03-14T06:58:38;3.53;;;2.90;;
65463;SDS011;52063;45.110;9.870;2023-03-14T07:01:10;3.38;;;3.08;;
65463;SDS011;52063;45.110;9.870;2023-03-14T07:03:42;4.60;;;3.43;;
65463;SDS011;52063;45.110;9.870;2023-03-14T07:06:08;3.78;;;3.35;;
65463;SDS011;52063;45.110;9.870;2023-03-14T07:08:33;5.97;;;3.40;;
65463;SDS011;52063;45.110;9.870;2023-03-14T07:11:00;3.53;;;3.22;;
65463;SDS011;52063;45.110;9.870;2023-03-14T07:13:26;3.50;;;3.20;;
65463;SDS011;52063;45.110;9.870;2023-03-14T07:16:00;4.07;;;3.03;;
65463;SDS011;52063;45.110;9.870;2023-03-14T07:18:26;4.57;;;3.30;;
65463;SDS011;52063;45.110;9.870;2023-03-14T07:20:51;5.05;;;3.33;;
65463;SDS011;52063;45.110;9.870;2023-03-14T07:23:18;4.93;;;3.53;;
65463;SDS011;52063;45.110;9.870;2023-03-14T07:25:47;3.20;;;2.90;;
65463;SDS011;52063;45.110;9.870;2023-03-14T07:28:14;3.55;;;3.25;;
65463;SDS011;52063;45.110;9.870;2023-03-14T07:30:41;3.60;;;3.30;;
65463;SDS011;52063;45.110;9.870;2023-03-14T07:33:15;3.50;;;3.20;;
65463;SDS011;52063;45.110;9.870;2023-03-14T07:35:42;4.60;;;3.30;;
65463;SDS011;52063;45.110;9.870;2023-03-14T07:38:08;3.38;;;2.90;;
65463;SDS011;52063;45.110;9.870;2023-03-14T07:40:37;3.30;;;3.00;;
65463;SDS011;52063;45.110;9.870;2023-03-14T07:43:05;3.45;;;3.15;;
65463;SDS011;52063;45.110;9.870;2023-03-14T07:45:50;3.85;;;3.10;;
65463;SDS011;52063;45.110;9.870;2023-03-14T07:48:16;2.83;;;2.57;;
65463;SDS011;52063;45.110;9.870;2023-03-14T07:50:42;3.60;;;3.30;;
65463;SDS011;52063;45.110;9.870;2023-03-14T07:53:07;3.40;;;2.97;;
65463;SDS011;52063;45.110;9.870;2023-03-14T07:55:32;3.50;;;3.20;;
65463;SDS011;52063;45.110;9.870;2023-03-14T07:57:58;3.50;;;3.20;;
65463;SDS011;52063;45.110;9.870;2023-03-14T08:00:23;3.63;;;3.13;;
65463;SDS011;52063;45.110;9.870;2023-03-14T08:02:49;4.07;;;3.20;;
65463;SDS011;52063;45.110;9.870;2023-03-14T08:05:14;3.67;;;3.38;;
65463;SDS011;52063;45.110;9.870;2023-03-14T08:07:40;3.50;;;3.20;;
65463;SDS011;52063;45.110;9.870;2023-03-14T08:10:05;3.73;;;3.17;;
65463;SDS011;52063;45.110;9.870;2023-03-14T08:12:33;3.40;;;3.10;;
65463;SDS011;52063;45.110;9.870;2023-03-14T08:14:58;3.67;;;3.07;;
65463;SDS011;52063;45.110;9.870;2023-03-14T08:17:25;3.47;;;3.17;;
65463;SDS011;52063;45.110;9.870;2023-03-14T08:19:50;3.53;;;3.22;;
65463;SDS011;52063;45.110;9.870;2023-03-14T08:22:16;3.77;;;3.20;;
65463;SDS011;52063;45.110;9.870;2023-03-14T08:24:41;4.90;;;3.00;;
65463;SDS011;52063;45.110;9.870;2023-03-14T08:27:07;4.03;;;3.35;;
65463;SDS011;52063;45.110;9.870;2023-03-14T08:29:32;3.90;;;3.13;;
65463;SDS011;52063;45.110;9.870;2023-03-14T08:31:57;3.50;;;3.17;;
65463;SDS011;52063;45.110;9.870;2023-03-14T08:34:23;4.00;;;3.30;;
65463;SDS011;52063;45.110;9.870;2023-03-14T08:36:48;3.60;;;3.30;;
65463;SDS011;52063;45.110;9.870;2023-03-14T08:39:15;3.92;;;3.58;;
65463;SDS011;52063;45.110;9.870;2023-03-14T08:41:40;3.60;;;3.30;;
65463;SDS011;52063;45.110;9.870;2023-03-14T08:44:08;4.00;;;3.53;;
65463;SDS011;52063;45.110;9.870;2023-03-14T08:46:34;3.50;;;3.20;;
65463;SDS011;52063;45.110;9.870;2023-03-14T08:48:59;4.18;;;3.88;;
65463;SDS011;52063;45.110;9.870;2023-03-14T08:51:25;3.93;;;3.47;;
65463;SDS011;52063;45.110;9.870;2023-03-14T08:53:50;3.70;;;3.40;;
65463;SDS011;52063;45.110;9.870;2023-03-14T08:56:16;4.05;;;3.65;;
65463;SDS011;52063;45.110;9.870;2023-03-14T08:58:42;4.53;;;3.47;;
65463;SDS011;52063;45.110;9.870;2023-03-14T09:01:08;7.90;;;3.47;;
65463;SDS011;52063;45.110;9.870;2023-03-14T09:03:34;4.22;;;3.42;;
65463;SDS011;52063;45.110;9.870;2023-03-14T09:06:04;4.93;;;4.03;;
65463;SDS011;52063;45.110;9.870;2023-03-14T09:08:30;4.60;;;3.67;;
65463;SDS011;52063;45.110;9.870;2023-03-14T09:10:56;5.17;;;3.63;;
65463;SDS011;52063;45.110;9.870;2023-03-14T09:13:22;3.80;;;3.42;;
65463;SDS011;52063;45.110;9.870;2023-03-14T09:15:53;4.50;;;3.80;;
65463;SDS011;52063;45.110;9.870;2023-03-14T09:18:20;4.03;;;3.65;;
65463;SDS011;52063;45.110;9.870;2023-03-14T09:20:45;4.23;;;3.80;;
65463;SDS011;52063;45.110;9.870;2023-03-14T09:23:11;5.43;;;4.05;;
65463;SDS011;52063;45.110;9.870;2023-03-14T09:25:36;4.67;;;4.00;;
65463;SDS011;52063;45.110;9.870;2023-03-14T09:28:02;5.28;;;4.30;;
65463;SDS011;52063;45.110;9.870;2023-03-14T09:30:27;4.23;;;3.63;;
65463;SDS011;52063;45.110;9.870;2023-03-14T09:32:53;4.53;;;4.07;;
65463;SDS011;52063;45.110;9.870;2023-03-14T09:35:18;4.88;;;4.20;;
65463;SDS011;52063;45.110;9.870;2023-03-14T09:37:44;4.57;;;3.57;;
65463;SDS011;52063;45.110;9.870;2023-03-14T09:40:11;4.60;;;4.20;;
65463;SDS011;52063;45.110;9.870;2023-03-14T09:42:38;4.53;;;4.07;;
65463;SDS011;52063;45.110;9.870;2023-03-14T09:45:06;4.43;;;4.03;;
65463;SDS011;52063;45.110;9.870;2023-03-14T09:47:36;5.65;;;4.13;;
65463;SDS011;52063;45.110;9.870;2023-03-14T09:50:02;6.27;;;4.70;;
65463;SDS011;52063;45.110;9.870;2023-03-14T09:52:32;4.93;;;4.43;;
65463;SDS011;52063;45.110;9.870;2023-03-14T09:55:04;4.47;;;4.07;;
65463;SDS011;52063;45.110;9.870;2023-03-14T09:57:33;4.43;;;4.03;;
65463;SDS011;52063;45.110;9.870;2023-03-14T10:00:04;4.55;;;4.15;;
65463;SDS011;52063;45.110;9.870;2023-03-14T10:02:39;4.80;;;4.38;;
65463;SDS011;52063;45.110;9.870;2023-03-14T10:05:13;4.88;;;4.40;;
65463;SDS011;52063;45.110;9.870;2023-03-14T10:07:39;5.07;;;4.67;;
65463;SDS011;52063;45.110;9.870;2023-03-14T10:10:09;6.20;;;4.40;;
65463;SDS011;52063;45.110;9.870;2023-03-14T10:12:37;4.47;;;4.07;;
65463;SDS011;52063;45.110;9.870;2023-03-14T10:15:05;5.15;;;4.65;;
65463;SDS011;52063;45.110;9.870;2023-03-14T10:17:40;4.85;;;4.35;;
65463;SDS011;52063;45.110;9.870;2023-03-14T10:20:07;5.10;;;4.60;;
65463;SDS011;52063;45.110;9.870;2023-03-14T10:22:52;4.70;;;4.30;;
65463;SDS011;52063;45.110;9.870;2023-03-14T10:25:26;5.87;;;4.37;;
65463;SDS011;52063;45.110;9.870;2023-03-14T10:27:53;4.80;;;4.40;;
65463;SDS011;52063;45.110;9.870;2023-03-14T10:30:41;6.40;;;4.90;;
65463;SDS011;52063;45.110;9.870;2023-03-14T10:35:46;5.32;;;4.82;;
65463;SDS011;52063;45.110;9.870;2023-03-14T10:38:22;5.30;;;4.50;;
65463;SDS011;52063;45.110;9.870;2023-03-14T10:40:50;6.47;;;5.03;;
65463;SDS011;52063;45.110;9.870;2023-03-14T10:43:19;5.85;;;4.68;;
65463;SDS011;52063;45.110;9.870;2023-03-14T10:48:38;5.07;;;4.60;;
65463;SDS011;52063;45.110;9.870;2023-03-14T10:51:11;5.35;;;4.85;;
65463;SDS011;52063;45.110;9.870;2023-03-14T10:56:12;6.60;;;4.90;;
65463;SDS011;52063;45.110;9.870;2023-03-14T10:58:40;4.90;;;4.35;;
65463;SDS011;52063;45.110;9.870;2023-03-14T11:03:59;5.80;;;4.90;;
65463;SDS011;52063;45.110;9.870;2023-03-14T11:06:44;5.23;;;4.60;;
65463;SDS011;52063;45.110;9.870;2023-03-14T11:09:18;5.00;;;4.55;;
65463;SDS011;52063;45.110;9.870;2023-03-14T11:12:14;5.57;;;4.90;;
65463;SDS011;52063;45.110;9.870;2023-03-14T11:15:12;5.45;;;4.40;;
65463;SDS011;52063;45.110;9.870;2023-03-14T11:17:52;6.45;;;5.10;;
65463;SDS011;52063;45.110;9.870;2023-03-14T11:20:46;6.73;;;4.80;;
65463;SDS011;52063;45.110;9.870;2023-03-14T11:31:27;5.68;;;4.95;;
65463;SDS011;52063;45.110;9.870;2023-03-14T11:36:41;5.45;;;4.95;;
65463;SDS011;52063;45.110;9.870;2023-03-14T11:39:13;6.65;;;5.38;;
65463;SDS011;52063;45.110;9.870;2023-03-14T11:41:41;5.28;;;4.70;;
65463;SDS011;52063;45.110;9.870;2023-03-14T11:44:22;5.22;;;4.72;;
65463;SDS011;52063;45.110;9.870;2023-03-14T11:49:36;5.28;;;4.80;;
65463;SDS011;52063;45.110;9.870;2023-03-14T11:52:14;6.53;;;4.93;;
65463;SDS011;52063;45.110;9.870;2023-03-14T11:57:18;6.32;;;5.07;;
65463;SDS011;52063;45.110;9.870;2023-03-14T12:04:52;5.38;;;4.88;;
65463;SDS011;52063;45.110;9.870;2023-03-14T12:07:43;5.53;;;5.03;;
65463;SDS011;52063;45.110;9.870;2023-03-14T12:10:18;5.25;;;4.80;;
65463;SDS011;52063;45.110;9.870;2023-03-14T12:12:44;5.50;;;4.93;;
65463;SDS011;52063;45.110;9.870;2023-03-14T12:15:15;5.03;;;4.47;;
65463;SDS011;52063;45.110;9.870;2023-03-14T12:17:46;5.30;;;4.80;;
65463;SDS011;52063;45.110;9.870;2023-03-14T12:35:44;5.55;;;4.18;;
65463;SDS011;52063;45.110;9.870;2023-03-14T12:40:58;4.70;;;4.25;;
65463;SDS011;52063;45.110;9.870;2023-03-14T12:43:29;6.95;;;4.95;;
65463;SDS011;52063;45.110;9.870;2023-03-14T12:48:50;5.05;;;4.25;;
65463;SDS011;52063;45.110;9.870;2023-03-14T12:51:20;5.45;;;4.95;;
65463;SDS011;52063;45.110;9.870;2023-03-14T12:56:45;5.25;;;4.80;;
65463;SDS011;52063;45.110;9.870;2023-03-14T12:59:26;5.57;;;4.97;;
65463;SDS011;52063;45.110;9.870;2023-03-14T13:01:55;4.75;;;4.35;;
65463;SDS011;52063;45.110;9.870;2023-03-14T13:04:26;6.25;;;5.28;;
65463;SDS011;52063;45.110;9.870;2023-03-14T13:06:57;4.93;;;4.43;;
65463;SDS011;52063;45.110;9.870;2023-03-14T13:12:11;4.70;;;3.93;;
65463;SDS011;52063;45.110;9.870;2023-03-14T13:14:46;5.10;;;4.63;;
65463;SDS011;52063;45.110;9.870;2023-03-14T13:17:14;5.00;;;4.60;;
65463;SDS011;52063;45.110;9.870;2023-03-14T13:19:40;5.30;;;4.28;;
65463;SDS011;52063;45.110;9.870;2023-03-14T13:22:16;5.00;;;4.50;;
65463;SDS011;52063;45.110;9.870;2023-03-14T13:24:46;7.15;;;4.88;;
65463;SDS011;52063;45.110;9.870;2023-03-14T13:27:17;4.90;;;4.40;;
65463;SDS011;52063;45.110;9.870;2023-03-14T13:29:45;4.35;;;3.95;;
65463;SDS011;52063;45.110;9.870;2023-03-14T13:32:17;4.10;;;3.70;;
65463;SDS011;52063;45.110;9.870;2023-03-14T13:34:45;4.60;;;4.20;;
65463;SDS011;52063;45.110;9.870;2023-03-14T13:37:30;4.82;;;4.20;;
65463;SDS011;52063;45.110;9.870;2023-03-14T13:39:56;4.97;;;4.45;;
65463;SDS011;52063;45.110;9.870;2023-03-14T13:42:29;5.70;;;4.10;;
65463;SDS011;52063;45.110;9.870;2023-03-14T13:44:55;5.63;;;4.32;;
65463;SDS011;52063;45.110;9.870;2023-03-14T13:47:22;5.33;;;4.33;;
65463;SDS011;52063;45.110;9.870;2023-03-14T13:49:49;4.85;;;4.10;;
65463;SDS011;52063;45.110;9.870;2023-03-14T13:52:34;4.97;;;4.40;;
65463;SDS011;52063;45.110;9.870;2023-03-14T13:55:00;5.28;;;3.92;;
65463;SDS011;52063;45.110;9.870;2023-03-14T13:57:36;5.28;;;4.50;;
65463;SDS011;52063;45.110;9.870;2023-03-14T14:00:20;4.03;;;3.60;;
65463;SDS011;52063;45.110;9.870;2023-03-14T14:02:56;5.05;;;4.05;;
65463;SDS011;52063;45.110;9.870;2023-03-14T14:05:23;5.03;;;4.53;;
65463;SDS011;52063;45.110;9.870;2023-03-14T14:07:52;4.70;;;4.25;;
65463;SDS011;52063;45.110;9.870;2023-03-14T14:10:17;5.50;;;4.97;;
65463;SDS011;52063;45.110;9.870;2023-03-14T14:12:51;5.15;;;4.50;;
65463;SDS011;52063;45.110;9.870;2023-03-14T14:15:20;5.22;;;4.45;;
65463;SDS011;52063;45.110;9.870;2023-03-14T14:17:56;4.70;;;4.20;;
65463;SDS011;52063;45.110;9.870;2023-03-14T14:22:51;4.93;;;4.38;;
65463;SDS011;52063;45.110;9.870;2023-03-14T14:25:17;4.70;;;4.30;;
65463;SDS011;52063;45.110;9.870;2023-03-14T14:27:46;5.13;;;4.63;;
65463;SDS011;52063;45.110;9.870;2023-03-14T14:32:48;5.82;;;4.30;;
65463;SDS011;52063;45.110;9.870;2023-03-14T14:35:31;6.93;;;4.40;;
65463;SDS011;52063;45.110;9.870;2023-03-14T14:37:57;5.00;;;4.35;;
65463;SDS011;52063;45.110;9.870;2023-03-14T14:40:24;5.60;;;4.50;;
65463;SDS011;52063;45.110;9.870;2023-03-14T14:42:51;5.97;;;4.68;;
65463;SDS011;52063;45.110;9.870;2023-03-14T14:45:17;5.28;;;4.65;;
65463;SDS011;52063;45.110;9.870;2023-03-14T14:47:51;4.53;;;4.10;;
65463;SDS011;52063;45.110;9.870;2023-03-14T14:50:29;4.70;;;3.90;;
65463;SDS011;52063;45.110;9.870;2023-03-14T14:53:02;5.03;;;4.03;;
65463;SDS011;52063;45.110;9.870;2023-03-14T14:55:39;4.40;;;4.00;;
65463;SDS011;52063;45.110;9.870;2023-03-14T14:58:18;5.00;;;4.50;;
65463;SDS011;52063;45.110;9.870;2023-03-14T15:03:21;4.43;;;4.03;;
65463;SDS011;52063;45.110;9.870;2023-03-14T15:05:47;6.97;;;4.60;;
65463;SDS011;52063;45.110;9.870;2023-03-14T15:08:13;4.67;;;4.00;;
65463;SDS011;52063;45.110;9.870;2023-03-14T15:10:38;5.63;;;4.60;;
65463;SDS011;52063;45.110;9.870;2023-03-14T15:13:04;5.40;;;4.40;;
65463;SDS011;52063;45.110;9.870;2023-03-14T15:15:29;4.53;;;4.13;;
65463;SDS011;52063;45.110;9.870;2023-03-14T15:17:55;4.70;;;4.20;;
65463;SDS011;52063;45.110;9.870;2023-03-14T15:20:21;5.07;;;4.47;;
65463;SDS011;52063;45.110;9.870;2023-03-14T15:22:48;4.20;;;3.80;;
65463;SDS011;52063;45.110;9.870;2023-03-14T15:25:14;4.38;;;3.95;;
65463;SDS011;52063;45.110;9.870;2023-03-14T15:27:40;6.03;;;4.40;;
65463;SDS011;52063;45.110;9.870;2023-03-14T15:30:11;4.40;;;3.97;;
65463;SDS011;52063;45.110;9.870;2023-03-14T15:32:37;4.60;;;3.70;;
65463;SDS011;52063;45.110;9.870;2023-03-14T15:35:03;4.80;;;3.83;;
65463;SDS011;52063;45.110;9.870;2023-03-14T15:37:28;4.50;;;4.10;;
65463;SDS011;52063;45.110;9.870;2023-03-14T15:39:54;4.77;;;4.37;;
65463;SDS011;52063;45.110;9.870;2023-03-14T15:42:23;4.32;;;3.92;;
65463;SDS011;52063;45.110;9.870;2023-03-14T15:44:48;4.70;;;3.90;;
65463;SDS011;52063;45.110;9.870;2023-03-14T15:47:14;4.53;;;4.13;;
65463;SDS011;52063;45.110;9.870;2023-03-14T15:49:39;5.27;;;4.37;;
65463;SDS011;52063;45.110;9.870;2023-03-14T15:52:05;4.90;;;3.72;;
65463;SDS011;52063;45.110;9.870;2023-03-14T15:54:33;4.40;;;4.00;;
65463;SDS011;52063;45.110;9.870;2023-03-14T15:56:59;3.63;;;3.30;;
65463;SDS011;52063;45.110;9.870;2023-03-14T15:59:24;4.47;;;3.88;;
65463;SDS011;52063;45.110;9.870;2023-03-14T16:01:50;4.20;;;3.87;;
65463;SDS011;52063;45.110;9.870;2023-03-14T16:04:16;4.57;;;3.90;;
65463;SDS011;52063;45.110;9.870;2023-03-14T16:06:42;4.77;;;3.80;;
65463;SDS011;52063;45.110;9.870;2023-03-14T16:09:09;3.90;;;3.60;;
65463;SDS011;52063;45.110;9.870;2023-03-14T16:11:35;5.00;;;4.13;;
65463;SDS011;52063;45.110;9.870;2023-03-14T16:14:01;5.43;;;4.00;;
65463;SDS011;52063;45.110;9.870;2023-03-14T16:16:26;4.10;;;3.70;;
65463;SDS011;52063;45.110;9.870;2023-03-14T16:18:51;4.57;;;3.60;;
65463;SDS011;52063;45.110;9.870;2023-03-14T16:21:18;3.72;;;3.40;;
65463;SDS011;52063;45.110;9.870;2023-03-14T16:23:44;4.57;;;3.70;;
65463;SDS011;52063;45.110;9.870;2023-03-14T16:26:11;3.55;;;3.13;;
65463;SDS011;52063;45.110;9.870;2023-03-14T16:28:41;4.07;;;3.20;;
65463;SDS011;52063;45.110;9.870;2023-03-14T16:31:07;4.10;;;3.70;;
65463;SDS011;52063;45.110;9.870;2023-03-14T16:33:34;4.50;;;3.45;;
65463;SDS011;52063;45.110;9.870;2023-03-14T16:36:01;4.10;;;3.70;;
65463;SDS011;52063;45.110;9.870;2023-03-14T16:38:30;4.07;;;3.70;;
65463;SDS011;52063;45.110;9.870;2023-03-14T16:41:15;4.30;;;3.90;;
65463;SDS011;52063;45.110;9.870;2023-03-14T16:43:41;4.23;;;3.80;;
65463;SDS011;52063;45.110;9.870;2023-03-14T16:46:09;4.30;;;3.83;;
65463;SDS011;52063;45.110;9.870;2023-03-14T16:48:36;4.88;;;3.60;;
65463;SDS011;52063;45.110;9.870;2023-03-14T16:51:02;3.73;;;3.43;;
65463;SDS011;52063;45.110;9.870;2023-03-14T16:53:28;4.70;;;3.40;;
65463;SDS011;52063;45.110;9.870;2023-03-14T16:55:54;3.87;;;3.13;;
65463;SDS011;52063;45.110;9.870;2023-03-14T16:58:20;3.17;;;2.92;;
65463;SDS011;52063;45.110;9.870;2023-03-14T17:00:46;4.70;;;3.28;;
65463;SDS011;52063;45.110;9.870;2023-03-14T17:03:12;3.33;;;3.03;;
65463;SDS011;52063;45.110;9.870;2023-03-14T17:05:43;3.67;;;3.37;;
65463;SDS011;52063;45.110;9.870;2023-03-14T17:08:10;4.95;;;3.55;;
65463;SDS011;52063;45.110;9.870;2023-03-14T17:10:36;3.70;;;3.40;;
65463;SDS011;52063;45.110;9.870;2023-03-14T17:13:01;3.83;;;3.53;;
65463;SDS011;52063;45.110;9.870;2023-03-14T17:15:27;3.50;;;3.20;;
65463;SDS011;52063;45.110;9.870;2023-03-14T17:17:52;3.10;;;2.87;;
65463;SDS011;52063;45.110;9.870;2023-03-14T17:20:17;3.50;;;3.20;;
65463;SDS011;52063;45.110;9.870;2023-03-14T17:22:43;4.55;;;3.08;;
65463;SDS011;52063;45.110;9.870;2023-03-14T17:25:08;4.47;;;3.50;;
65463;SDS011;52063;45.110;9.870;2023-03-14T17:27:34;3.40;;;3.10;;
65463;SDS011;52063;45.110;9.870;2023-03-14T17:30:00;3.10;;;2.80;;
65463;SDS011;52063;45.110;9.870;2023-03-14T17:32:26;3.03;;;2.83;;
65463;SDS011;52063;45.110;9.870;2023-03-14T17:34:53;4.22;;;3.50;;
65463;SDS011;52063;45.110;9.870;2023-03-14T17:37:18;3.33;;;3.13;;
65463;SDS011;52063;45.110;9.870;2023-03-14T17:39:44;4.85;;;3.10;;
65463;SDS011;52063;45.110;9.870;2023-03-14T17:42:09;2.97;;;2.67;;
65463;SDS011;52063;45.110;9.870;2023-03-14T17:44:35;4.03;;;3.30;;
65463;SDS011;52063;45.110;9.870;2023-03-14T17:47:00;3.90;;;3.60;;
65463;SDS011;52063;45.110;9.870;2023-03-14T17:49:26;3.55;;;3.25;;
65463;SDS011;52063;45.110;9.870;2023-03-14T17:51:51;4.00;;;3.60;;
65463;SDS011;52063;45.110;9.870;2023-03-14T17:54:17;3.60;;;3.30;;
65463;SDS011;52063;45.110;9.870;2023-03-14T17:56:42;3.67;;;3.38;;
65463;SDS011;52063;45.110;9.870;2023-03-14T17:59:08;3.97;;;3.53;;
65463;SDS011;52063;45.110;9.870;2023-03-14T18:01:35;4.20;;;3.42;;
65463;SDS011;52063;45.110;9.870;2023-03-14T18:04:00;4.23;;;3.63;;
65463;SDS011;52063;45.110;9.870;2023-03-14T18:06:26;4.00;;;3.60;;
65463;SDS011;52063;45.110;9.870;2023-03-14T18:08:54;4.45;;;3.70;;
65463;SDS011;52063;45.110;9.870;2023-03-14T18:11:20;4.20;;;3.80;;
65463;SDS011;52063;45.110;9.870;2023-03-14T18:13:47;5.38;;;4.20;;
65463;SDS011;52063;45.110;9.870;2023-03-14T18:16:13;4.20;;;3.80;;
65463;SDS011;52063;45.110;9.870;2023-03-14T18:18:39;4.20;;;3.80;;
65463;SDS011;52063;45.110;9.870;2023-03-14T18:21:05;4.30;;;3.90;;
65463;SDS011;52063;45.110;9.870;2023-03-14T18:23:32;4.20;;;3.80;;
65463;SDS011;52063;45.110;9.870;2023-03-14T18:25:58;3.85;;;3.55;;
65463;SDS011;52063;45.110;9.870;2023-03-14T18:28:25;4.53;;;3.93;;
65463;SDS011;52063;45.110;9.870;2023-03-14T18:30:51;4.53;;;4.13;;
65463;SDS011;52063;45.110;9.870;2023-03-14T18:33:18;5.30;;;4.00;;
65463;SDS011;52063;45.110;9.870;2023-03-14T18:35:44;4.07;;;3.67;;
65463;SDS011;52063;45.110;9.870;2023-03-14T18:38:10;4.07;;;3.67;;
65463;SDS011;52063;45.110;9.870;2023-03-14T18:40:36;4.93;;;3.53;;
65463;SDS011;52063;45.110;9.870;2023-03-14T18:43:01;3.73;;;3.43;;